Time;durP1;ratioP1;P1;durP2;ratioP2;P2;SDS_P1;SDS_P2;PMS_P1;PMS_P2;Temp;Humidity;BMP_temperature;BMP_pressure;BME280_temperature;BME280_humidity;BME280_pressure;Samples;Min_cycle;Max_cycle;Signal;HPM_P1;HPM_P2
2023/01/05 00:01:35;;;;;;;17.23;6.78;;;;;;;10.55;100.00;100705.63;5045254;28;20029;-63
2023/01/05 00:04:00;;;;;;;14.98;6.18;;;;;;;10.58;100.00;100721.22;5043901;28;20447;-62
2023/01/05 00:06:26;;;;;;;17.05;5.85;;;;;;;10.54;100.00;100714.44;5051775;28;20037;-63
2023/01/05 00:08:51;;;;;;;16.55;6.57;;;;;;;10.51;100.00;100725.09;5048495;28;20035;-63
2023/01/05 00:22:30;;;;;;;18.95;6.45;;;;;;;10.41;100.00;100729.03;5044672;28;20310;-63
2023/01/05 00:25:11;;;;;;;19.60;6.95;;;;;;;10.45;100.00;100736.69;5052956;28;20033;-64
2023/01/05 00:27:37;;;;;;;28.33;6.50;;;;;;;10.41;100.00;100727.25;5053393;28;20034;-62
2023/01/05 00:30:04;;;;;;;18.40;6.13;;;;;;;10.41;100.00;100735.13;5050333;28;20479;-63
2023/01/05 00:32:29;;;;;;;21.92;7.20;;;;;;;10.43;100.00;100742.94;5052926;28;20064;-63
2023/01/05 00:34:56;;;;;;;23.40;7.07;;;;;;;10.38;100.00;100739.66;5053406;28;20029;-63
2023/01/05 00:37:23;;;;;;;17.15;6.18;;;;;;;10.41;100.00;100739.56;5054458;28;20057;-63
2023/01/05 00:39:49;;;;;;;18.10;6.93;;;;;;;10.39;100.00;100742.22;5054582;28;20112;-63
2023/01/05 00:42:14;;;;;;;18.05;6.10;;;;;;;10.43;100.00;100748.22;5053307;28;20119;-63
2023/01/05 00:44:40;;;;;;;23.23;7.13;;;;;;;10.34;100.00;100732.84;5054372;28;20483;-63
2023/01/05 00:47:05;;;;;;;12.75;6.68;;;;;;;10.33;100.00;100739.88;5054929;28;20029;-63
2023/01/05 00:49:30;;;;;;;19.67;6.55;;;;;;;10.40;100.00;100745.72;5054277;28;20021;-63
2023/01/05 00:51:56;;;;;;;25.02;6.15;;;;;;;10.27;100.00;100718.28;5069494;28;20087;-63
2023/01/05 00:54:21;;;;;;;14.73;6.78;;;;;;;10.38;100.00;100739.66;5053518;28;20041;-64
2023/01/05 00:56:49;;;;;;;17.50;6.63;;;;;;;10.36;100.00;100738.88;5054169;28;20107;-63
2023/01/05 00:59:16;;;;;;;19.90;6.93;;;;;;;10.32;100.00;100729.44;5053633;28;20409;-63
2023/01/05 01:01:45;;;;;;;17.13;6.15;;;;;;;10.34;100.00;100735.47;5034298;28;20041;-63
2023/01/05 01:04:10;;;;;;;23.58;7.40;;;;;;;10.35;100.00;100737.16;5053548;28;20103;-63
2023/01/05 01:06:36;;;;;;;20.17;6.95;;;;;;;10.30;100.00;100715.53;5054014;28;20109;-62
2023/01/05 01:09:01;;;;;;;19.45;7.18;;;;;;;10.32;100.00;100729.44;5053414;28;20092;-63
2023/01/05 01:11:26;;;;;;;24.08;7.10;;;;;;;10.26;100.00;100720.06;5053772;28;20446;-64
2023/01/05 01:13:52;;;;;;;19.17;6.85;;;;;;;10.17;100.00;100705.53;5051485;28;20518;-63
2023/01/05 01:16:17;;;;;;;19.92;7.05;;;;;;;10.11;100.00;100702.28;5053053;28;20525;-63
2023/01/05 01:18:43;;;;;;;27.45;6.68;;;;;;;10.14;100.00;100731.06;5053852;28;20029;-63
2023/01/05 01:21:08;;;;;;;17.83;6.75;;;;;;;10.12;100.00;100725.88;5053764;28;20021;-63
2023/01/05 01:23:36;;;;;;;17.67;7.05;;;;;;;10.09;100.00;100723.38;5052638;28;20032;-63
2023/01/05 01:26:05;;;;;;;31.90;7.97;;;;;;;10.10;100.00;100724.25;5052821;28;20471;-63
2023/01/05 01:28:31;;;;;;;21.90;7.05;;;;;;;10.12;100.00;100728.50;5053106;28;20032;-63
2023/01/05 01:30:56;;;;;;;18.00;7.13;;;;;;;10.13;100.00;100734.59;5052837;28;20028;-63
2023/01/05 01:33:22;;;;;;;21.88;7.75;;;;;;;10.12;100.00;100738.13;5052054;28;20032;-63
2023/01/05 01:35:47;;;;;;;29.10;6.82;;;;;;;10.14;100.00;100758.19;5050357;28;20032;-63
2023/01/05 01:38:13;;;;;;;20.60;7.53;;;;;;;10.19;100.00;100756.22;5052968;28;20472;-63
2023/01/05 01:40:39;;;;;;;29.67;7.32;;;;;;;10.21;100.00;100767.50;5053109;28;20025;-64
2023/01/05 01:43:15;;;;;;;18.60;8.20;;;;;;;10.16;100.00;100769.50;5053462;28;20045;-63
2023/01/05 01:45:41;;;;;;;19.08;6.60;;;;;;;10.10;100.00;100761.84;5049322;28;20060;-63
2023/01/05 01:48:09;;;;;;;21.75;7.32;;;;;;;10.17;100.00;100773.81;5053257;28;20064;-63
2023/01/05 01:50:44;;;;;;;25.17;7.35;;;;;;;9.94;100.00;100739.75;5053029;28;20017;-63
2023/01/05 01:53:33;;;;;;;22.38;8.25;;;;;;;10.15;100.00;100774.78;5023333;28;20029;-64
2023/01/05 01:56:01;;;;;;;23.48;7.20;;;;;;;10.13;100.00;100772.22;5053427;28;20028;-63
2023/01/05 01:58:29;;;;;;;23.65;7.88;;;;;;;10.11;100.00;100774.03;5053438;28;20029;-63
2023/01/05 02:00:54;;;;;;;17.05;7.32;;;;;;;10.07;100.00;100772.44;5052328;28;20371;-63
2023/01/05 02:03:20;;;;;;;29.25;7.55;;;;;;;10.17;100.00;100773.81;5050961;28;20048;-63
2023/01/05 02:05:45;;;;;;;19.67;6.97;;;;;;;10.11;100.00;100773.19;5051635;28;20100;-63
2023/01/05 02:08:12;;;;;;;30.92;8.38;;;;;;;10.18;100.00;100786.03;5043144;28;20447;-63
2023/01/05 02:11:00;;;;;;;28.10;6.32;;;;;;;10.14;100.00;100781.81;5047421;28;20048;-63
2023/01/05 02:13:37;;;;;;;16.38;7.50;;;;;;;10.06;100.00;100773.41;5027094;28;20075;-63
2023/01/05 02:16:38;;;;;;;22.58;7.40;;;;;;;10.27;100.00;100779.56;5042658;28;20021;-62
2023/01/05 02:19:51;;;;;;;19.58;7.53;;;;;;;10.25;100.00;100791.88;5051817;28;20501;-63
2023/01/05 02:22:25;;;;;;;26.48;8.30;;;;;;;10.27;100.00;100798.75;5011610;28;20041;-63
2023/01/05 02:25:24;;;;;;;21.00;7.75;;;;;;;10.24;100.00;100798.91;5047479;28;20040;-63
2023/01/05 02:28:14;;;;;;;22.05;7.30;;;;;;;10.25;100.00;100797.97;5011395;28;20075;-62
2023/01/05 02:31:02;;;;;;;19.38;6.72;;;;;;;10.22;100.00;100808.63;5034186;28;20033;-63
2023/01/05 02:33:42;;;;;;;28.77;8.00;;;;;;;10.26;100.00;100798.84;5050794;28;20032;-63
2023/01/05 02:36:28;;;;;;;22.70;7.25;;;;;;;10.27;100.00;100790.88;5052097;28;20033;-62
2023/01/05 02:39:13;;;;;;;18.48;6.78;;;;;;;10.29;100.00;100797.84;5040932;28;20094;-63
2023/01/05 02:41:46;;;;;;;19.95;7.45;;;;;;;10.25;100.00;100803.22;5033149;28;20025;-63
2023/01/05 02:44:15;;;;;;;27.23;7.93;;;;;;;10.29;100.00;100787.34;5032515;28;20049;-62
2023/01/05 02:46:40;;;;;;;25.10;7.65;;;;;;;10.29;100.00;100793.44;5018158;28;20372;-62
2023/01/05 02:49:06;;;;;;;23.00;6.65;;;;;;;10.31;100.00;100790.78;5052385;28;20041;-62
2023/01/05 02:51:35;;;;;;;22.63;7.55;;;;;;;10.29;100.00;100782.94;5034430;28;20040;-62
2023/01/05 02:54:26;;;;;;;20.55;6.88;;;;;;;10.27;100.00;100785.63;5050107;28;20037;-63
2023/01/05 02:57:06;;;;;;;28.02;7.82;;;;;;;10.22;100.00;100792.00;5051104;28;20082;-63
2023/01/05 02:59:35;;;;;;;20.90;7.90;;;;;;;10.25;100.00;100782.22;5051856;28;20107;-63
2023/01/05 03:02:05;;;;;;;18.63;6.90;;;;;;;10.26;100.00;100788.34;5033830;28;20021;-62
2023/01/05 03:04:34;;;;;;;27.92;7.93;;;;;;;10.26;100.00;100790.97;5034517;28;20391;-63
2023/01/05 03:07:06;;;;;;;17.92;6.82;;;;;;;10.26;100.00;100790.97;5051649;28;20129;-62
2023/01/05 03:09:36;;;;;;;20.23;7.43;;;;;;;10.27;100.00;100790.88;5034449;28;20028;-62
2023/01/05 03:15:29;;;;;;;18.80;7.03;;;;;;;10.22;100.00;100798.13;5046282;28;20112;-63
2023/01/05 03:17:59;;;;;;;21.85;6.63;;;;;;;10.13;100.00;100787.97;5039628;28;20135;-62
2023/01/05 03:20:31;;;;;;;24.42;7.40;;;;;;;10.17;100.00;100783.47;5043424;28;20030;-63
2023/01/05 03:37:20;;;;;;;26.40;8.07;;;;;;;10.12;100.00;100783.63;5042348;28;20035;-62
2023/01/05 03:39:46;;;;;;;22.20;7.93;;;;;;;10.17;100.00;100800.06;5029678;28;20017;-63
2023/01/05 03:42:13;;;;;;;22.58;6.88;;;;;;;10.21;100.00;100806.91;5049591;28;20044;-63
2023/01/05 03:44:39;;;;;;;19.65;7.55;;;;;;;10.19;100.00;100808.75;5052226;28;20035;-63
2023/01/05 03:47:05;;;;;;;20.73;6.63;;;;;;;10.02;100.00;100779.69;5029926;28;20113;-63
2023/01/05 03:49:31;;;;;;;24.73;7.13;;;;;;;10.19;100.00;100803.50;5053842;28;20522;-63
2023/01/05 03:51:56;;;;;;;22.13;7.63;;;;;;;10.19;100.00;100811.38;5036328;28;20451;-63
2023/01/05 03:54:22;;;;;;;20.23;7.78;;;;;;;10.10;100.00;100798.63;5043511;28;20582;-63
2023/01/05 03:56:47;;;;;;;24.38;8.18;;;;;;;10.11;100.00;100794.19;5043666;28;20025;-63
2023/01/05 03:59:12;;;;;;;24.48;8.32;;;;;;;10.14;100.00;100799.34;5048983;28;20032;-63
2023/01/05 04:01:38;;;;;;;24.90;8.63;;;;;;;10.07;100.00;100793.47;5048665;28;20046;-63
2023/01/05 04:04:03;;;;;;;25.15;8.00;;;;;;;9.98;100.00;100778.09;5055199;28;20036;-63
2023/01/05 04:06:29;;;;;;;31.02;10.05;;;;;;;10.08;100.00;100804.81;5037748;28;20370;-63
2023/01/05 04:08:54;;;;;;;25.50;8.27;;;;;;;10.08;100.00;100816.19;5054588;28;20408;-62
2023/01/05 04:11:22;;;;;;;21.38;8.25;;;;;;;9.98;100.00;100804.34;5055126;28;20086;-63
2023/01/05 04:13:47;;;;;;;29.30;8.43;;;;;;;9.83;100.00;100809.38;5054840;28;20028;-63
2023/01/05 04:16:13;;;;;;;26.88;9.02;;;;;;;9.74;100.00;100815.84;5054966;28;20475;-63
2023/01/05 04:18:38;;;;;;;26.10;9.57;;;;;;;9.64;100.00;100819.75;5054760;28;20033;-63
2023/01/05 04:21:04;;;;;;;20.55;8.45;;;;;;;9.56;100.00;100822.69;5042879;28;20028;-63
2023/01/05 04:23:30;;;;;;;24.52;8.52;;;;;;;9.47;100.00;100814.31;5051806;28;20032;-63
2023/01/05 04:25:56;;;;;;;26.58;8.98;;;;;;;9.46;100.00;100820.50;5054858;28;20021;-63
2023/01/05 04:28:21;;;;;;;28.98;8.82;;;;;;;9.57;100.00;100828.75;5051499;28;20036;-63
2023/01/05 04:30:51;;;;;;;31.02;9.25;;;;;;;9.61;100.00;100825.97;5055034;28;20071;-63
2023/01/05 04:33:17;;;;;;;30.70;8.32;;;;;;;9.58;100.00;100817.38;5047938;28;20140;-63
2023/01/05 04:35:43;;;;;;;33.17;8.88;;;;;;;9.62;100.00;100826.84;5034079;28;20036;-63
2023/01/05 04:38:08;;;;;;;29.27;8.85;;;;;;;9.66;100.00;100817.94;5051522;28;20525;-63
2023/01/05 04:40:34;;;;;;;25.30;8.40;;;;;;;9.68;100.00;100822.19;5054699;28;20029;-63
2023/01/05 04:42:59;;;;;;;30.15;8.52;;;;;;;9.73;100.00;100822.03;5054149;28;20432;-63
2023/01/05 04:45:25;;;;;;;20.77;8.75;;;;;;;9.75;100.00;100818.41;5053248;28;20075;-63
2023/01/05 04:47:51;;;;;;;18.10;7.78;;;;;;;9.75;100.00;100818.41;5053808;28;20033;-63
2023/01/05 04:50:17;;;;;;;32.08;8.93;;;;;;;9.87;100.00;100826.72;5053931;28;20734;-63
2023/01/05 04:52:42;;;;;;;33.08;8.93;;;;;;;9.88;100.00;100824.03;5053766;28;20053;-63
2023/01/05 04:55:08;;;;;;;42.20;9.77;;;;;;;9.87;100.00;100811.81;5054585;28;20071;-63
2023/01/05 04:57:34;;;;;;;27.48;8.88;;;;;;;9.92;100.00;100815.09;5054713;28;20055;-63
2023/01/05 05:00:00;;;;;;;23.83;7.80;;;;;;;10.07;100.00;100829.38;5053046;28;20037;-62
2023/01/05 05:02:25;;;;;;;33.95;9.98;;;;;;;10.01;100.00;100821.75;5054391;28;20021;-63
2023/01/05 05:04:51;;;;;;;25.10;8.52;;;;;;;10.07;100.00;100826.75;5050370;28;20052;-63
2023/01/05 05:07:17;;;;;;;25.45;9.48;;;;;;;10.11;100.00;100834.44;5054135;28;20067;-63
2023/01/05 05:09:43;;;;;;;20.13;8.10;;;;;;;10.12;100.00;100837.91;5035977;28;20033;-63
2023/01/05 05:12:08;;;;;;;24.05;8.80;;;;;;;10.10;100.00;100838.00;5054132;28;20040;-63
2023/01/05 05:14:33;;;;;;;26.02;8.23;;;;;;;9.86;100.00;100783.88;5053503;28;20025;-63
2023/01/05 05:16:59;;;;;;;25.88;8.45;;;;;;;10.13;100.00;100840.50;5040543;28;20395;-63
2023/01/05 05:19:24;;;;;;;26.00;9.93;;;;;;;10.01;100.00;100817.34;5053149;28;20057;-63
2023/01/05 05:21:50;;;;;;;32.50;9.60;;;;;;;10.13;100.00;100830.00;5035572;28;20091;-63
2023/01/05 05:24:15;;;;;;;24.83;8.75;;;;;;;10.05;100.00;100808.44;5054051;28;20033;-63
2023/01/05 05:26:40;;;;;;;23.33;8.80;;;;;;;10.17;100.00;100826.31;5053396;28;20021;-63
2023/01/05 05:29:06;;;;;;;28.88;9.48;;;;;;;10.12;100.00;100830.91;5053834;28;20036;-63
2023/01/05 05:31:31;;;;;;;32.47;9.50;;;;;;;10.13;100.00;100845.75;5050255;28;20025;-63
2023/01/05 05:33:57;;;;;;;28.33;8.82;;;;;;;10.13;100.00;100853.63;5053780;28;20032;-63
2023/01/05 05:36:22;;;;;;;31.80;9.35;;;;;;;10.07;100.00;100843.34;5053573;28;20048;-63
2023/01/05 05:38:48;;;;;;;21.90;8.07;;;;;;;10.08;100.00;100852.94;5053275;28;20033;-63
2023/01/05 05:41:13;;;;;;;20.77;8.23;;;;;;;10.13;100.00;100865.88;5053075;28;20035;-63
2023/01/05 05:43:38;;;;;;;22.17;8.02;;;;;;;10.13;100.00;100871.13;5053583;28;20029;-63
2023/01/05 05:46:04;;;;;;;34.28;8.80;;;;;;;10.14;100.00;100862.34;5052372;28;20060;-63
2023/01/05 05:48:29;;;;;;;24.52;8.85;;;;;;;10.14;100.00;100865.84;5053044;28;20037;-63
2023/01/05 05:50:55;;;;;;;28.48;9.48;;;;;;;10.12;100.00;100870.28;5052656;28;20474;-63
2023/01/05 05:53:20;;;;;;;26.02;8.48;;;;;;;10.12;100.00;100854.53;5052029;28;20036;-63
2023/01/05 05:55:49;;;;;;;23.58;8.13;;;;;;;10.09;100.00;100865.16;5052557;28;21213;-63
2023/01/05 05:58:16;;;;;;;20.92;7.82;;;;;;;9.66;100.00;100799.56;5052748;28;20032;-63
2023/01/05 06:00:41;;;;;;;34.55;8.35;;;;;;;10.05;100.00;100867.97;5053019;28;20021;-63
2023/01/05 06:03:06;;;;;;;24.35;8.85;;;;;;;10.10;100.00;100873.91;5051084;28;20028;-63
2023/01/05 06:05:32;;;;;;;32.40;10.15;;;;;;;10.08;100.00;100878.34;5051807;28;20395;-63
2023/01/05 06:07:57;;;;;;;29.65;9.80;;;;;;;10.09;100.00;100880.91;5052934;28;20364;-63
2023/01/05 06:10:22;;;;;;;30.08;7.85;;;;;;;10.08;100.00;100884.44;5052851;28;20079;-62
2023/01/05 06:12:48;;;;;;;19.65;8.40;;;;;;;10.05;100.00;100895.06;5051803;28;20487;-63
2023/01/05 06:15:13;;;;;;;23.60;8.07;;;;;;;9.99;100.00;100879.56;5047296;28;20036;-63
2023/01/05 06:17:39;;;;;;;37.10;9.40;;;;;;;9.97;100.00;100881.38;5053186;28;20032;-63
2023/01/05 06:20:05;;;;;;;23.80;9.05;;;;;;;10.05;100.00;100894.22;5047035;28;20052;-63
2023/01/05 06:22:31;;;;;;;33.15;8.35;;;;;;;9.79;100.00;100844.53;5047811;28;20471;-63
2023/01/05 06:24:56;;;;;;;31.38;8.93;;;;;;;10.04;100.00;100888.09;5052415;28;20079;-63
2023/01/05 06:27:21;;;;;;;25.88;9.73;;;;;;;10.07;100.00;100897.66;5052488;28;20099;-63
2023/01/05 06:29:47;;;;;;;26.92;8.35;;;;;;;10.03;100.00;100894.28;5051493;28;20071;-63
2023/01/05 06:32:12;;;;;;;20.73;8.27;;;;;;;10.00;100.00;100891.78;5052464;28;20025;-63
2023/01/05 06:34:37;;;;;;;25.42;9.07;;;;;;;9.99;100.00;100895.31;5051267;28;20031;-63
2023/01/05 06:37:05;;;;;;;27.08;8.38;;;;;;;10.02;100.00;100900.44;5051946;28;20029;-63
2023/01/05 06:39:30;;;;;;;28.67;8.73;;;;;;;9.95;100.00;100893.72;5049865;28;20032;-63
2023/01/05 06:41:56;;;;;;;24.08;9.40;;;;;;;9.91;100.00;100889.50;5052552;28;20044;-63
2023/01/05 06:44:21;;;;;;;16.25;7.55;;;;;;;10.01;100.00;100906.59;5049219;28;20487;-63
2023/01/05 06:46:47;;;;;;;26.23;8.57;;;;;;;10.05;100.00;100916.06;5047844;28;20028;-63
2023/01/05 06:49:13;;;;;;;21.98;9.25;;;;;;;10.06;100.00;100917.81;5051128;28;20483;-63
2023/01/05 06:51:39;;;;;;;23.70;9.00;;;;;;;10.05;100.00;100934.47;5052399;28;20090;-63
2023/01/05 06:54:05;;;;;;;32.00;8.85;;;;;;;10.05;100.00;100937.09;5052160;28;20520;-63
2023/01/05 06:56:30;;;;;;;31.38;10.00;;;;;;;9.91;100.00;100922.78;5052163;28;20508;-63
2023/01/05 06:58:56;;;;;;;36.92;9.77;;;;;;;9.96;100.00;100934.81;5051480;28;20033;-63
2023/01/05 07:01:21;;;;;;;37.78;8.75;;;;;;;9.96;100.00;100926.09;5051015;28;20033;-63
2023/01/05 07:03:46;;;;;;;36.58;8.98;;;;;;;10.00;100.00;100933.81;5047850;28;20055;-64
2023/01/05 07:06:13;;;;;;;37.85;8.95;;;;;;;10.04;100.00;100935.38;5045952;28;20032;-63
2023/01/05 07:08:39;;;;;;;23.50;8.07;;;;;;;10.05;100.00;100944.97;5050299;28;20028;-63
2023/01/05 07:11:04;;;;;;;24.45;9.13;;;;;;;10.06;100.00;100944.06;5050720;28;20033;-63
2023/01/05 07:13:30;;;;;;;23.35;9.55;;;;;;;9.98;100.00;100938.22;5049564;28;20029;-63
2023/01/05 07:15:55;;;;;;;32.17;10.55;;;;;;;10.03;100.00;100954.69;5052073;28;20021;-63
2023/01/05 07:18:20;;;;;;;29.55;9.98;;;;;;;10.06;100.00;100958.94;5051928;28;20506;-63
2023/01/05 07:20:46;;;;;;;25.58;9.35;;;;;;;10.05;100.00;100952.84;5049084;28;20179;-63
2023/01/05 07:23:11;;;;;;;25.25;8.90;;;;;;;10.05;100.00;100955.47;5049651;28;20033;-63
2023/01/05 07:25:36;;;;;;;28.67;9.63;;;;;;;10.02;100.00;100950.34;5055169;28;20106;-63
2023/01/05 07:28:02;;;;;;;29.77;9.25;;;;;;;10.08;100.00;100962.34;5053499;28;20029;-63
2023/01/05 07:30:27;;;;;;;32.03;9.43;;;;;;;10.08;100.00;100951.84;5045645;28;20128;-63
2023/01/05 07:32:57;;;;;;;34.20;10.13;;;;;;;10.08;100.00;100962.34;5055574;28;20039;-63
2023/01/05 07:35:22;;;;;;;26.27;8.63;;;;;;;9.99;100.00;100945.22;5056476;28;20033;-63
2023/01/05 07:37:47;;;;;;;37.90;10.13;;;;;;;10.01;100.00;100942.50;5055841;28;20040;-63
2023/01/05 07:40:13;;;;;;;43.72;9.63;;;;;;;9.93;100.00;100934.94;5055916;28;20096;-63
2023/01/05 07:42:38;;;;;;;24.30;9.27;;;;;;;10.07;100.00;100966.75;5055617;28;20037;-63
2023/01/05 07:45:04;;;;;;;34.75;9.73;;;;;;;10.04;100.00;100966.88;5056164;28;20029;-63
2023/01/05 07:47:30;;;;;;;23.50;9.65;;;;;;;10.03;100.00;100959.94;5053891;28;20047;-63
2023/01/05 07:49:55;;;;;;;25.27;9.27;;;;;;;10.05;100.00;100973.84;5055030;28;20020;-63
2023/01/05 07:52:21;;;;;;;30.67;9.70;;;;;;;10.05;100.00;100979.09;5054936;28;20479;-63
2023/01/05 07:54:46;;;;;;;27.55;8.68;;;;;;;10.08;100.00;100983.34;5050410;28;20029;-63
2023/01/05 07:57:11;;;;;;;25.90;9.00;;;;;;;10.07;100.00;100989.53;5054462;28;20025;-63
2023/01/05 07:59:37;;;;;;;24.33;8.30;;;;;;;10.00;100.00;100975.81;5055442;28;20021;-66
2023/01/05 08:02:02;;;;;;;33.33;10.07;;;;;;;10.05;100.00;100991.34;5055357;28;20372;-63
2023/01/05 08:04:28;;;;;;;23.83;9.32;;;;;;;10.05;100.00;100999.22;5055056;28;20104;-63
2023/01/05 08:06:53;;;;;;;21.75;7.90;;;;;;;10.03;100.00;101004.56;5055309;28;20025;-62
2023/01/05 08:12:02;;;;;;;28.45;9.15;;;;;;;10.04;100.00;101010.63;5043481;28;20093;-63
2023/01/05 08:14:28;;;;;;;34.22;9.90;;;;;;;9.90;100.00;100992.78;5051472;28;20029;-63
2023/01/05 08:16:53;;;;;;;20.50;8.57;;;;;;;10.05;100.00;101005.34;5051520;28;20129;-63
2023/01/05 08:19:19;;;;;;;21.33;8.35;;;;;;;10.11;100.00;101015.59;5054052;28;20066;-64
2023/01/05 08:21:44;;;;;;;29.90;8.60;;;;;;;10.09;100.00;101012.19;5050648;28;20116;-62
2023/01/05 08:24:09;;;;;;;31.13;9.55;;;;;;;9.99;100.00;101004.72;5052575;28;20032;-63
2023/01/05 08:26:35;;;;;;;35.50;9.18;;;;;;;10.08;100.00;101014.88;5055126;28;20033;-63
2023/01/05 08:29:00;;;;;;;24.50;8.88;;;;;;;10.04;100.00;101014.13;5047834;28;20036;-63
2023/01/05 08:31:28;;;;;;;25.08;10.07;;;;;;;10.08;100.00;101014.88;5054447;28;20048;-63
2023/01/05 08:33:56;;;;;;;41.55;11.50;;;;;;;10.04;100.00;101011.50;5055060;28;20025;-63
2023/01/05 08:36:22;;;;;;;30.15;8.63;;;;;;;10.10;100.00;101015.69;5052849;28;20037;-64
2023/01/05 08:38:50;;;;;;;27.65;9.50;;;;;;;10.09;100.00;101012.19;5054333;28;20031;-64
2023/01/05 08:41:20;;;;;;;30.90;10.60;;;;;;;9.91;100.00;100981.38;5052263;28;20531;-64
2023/01/05 08:43:53;;;;;;;27.63;10.02;;;;;;;10.08;100.00;101026.22;5043777;28;20479;-64
2023/01/05 08:46:21;;;;;;;37.58;9.25;;;;;;;9.69;100.00;100954.25;5036539;28;20029;-64
2023/01/05 08:48:48;;;;;;;28.13;9.73;;;;;;;10.11;100.00;101028.75;5053915;28;20041;-63
2023/01/05 08:51:13;;;;;;;29.88;9.32;;;;;;;10.15;100.00;101027.75;5053572;28;20036;-64
2023/01/05 08:53:39;;;;;;;27.50;10.23;;;;;;;10.17;100.00;101031.16;5053999;28;20025;-63
2023/01/05 08:56:04;;;;;;;24.25;9.82;;;;;;;10.21;100.00;101027.50;5052055;28;20036;-62
2023/01/05 08:58:30;;;;;;;36.28;9.57;;;;;;;10.26;100.00;101032.59;5053577;28;20039;-63
2023/01/05 09:00:55;;;;;;;29.38;10.13;;;;;;;10.22;100.00;101028.38;5054049;28;20414;-65
2023/01/05 09:03:21;;;;;;;33.03;10.13;;;;;;;10.25;100.00;101047.47;5053787;28;20029;-64
2023/01/05 09:05:46;;;;;;;32.38;9.85;;;;;;;10.29;100.00;101052.63;5053509;28;20083;-65
2023/01/05 09:08:12;;;;;;;28.02;10.35;;;;;;;10.01;100.00;100992.38;5053498;28;20032;-64
2023/01/05 09:10:37;;;;;;;31.33;9.55;;;;;;;10.31;100.00;101042.94;5053270;28;20021;-64
2023/01/05 09:13:02;;;;;;;28.92;9.23;;;;;;;10.32;100.00;101052.50;5052657;28;20029;-64
2023/01/05 09:15:28;;;;;;;37.22;8.95;;;;;;;10.32;100.00;101055.97;5053434;28;20447;-63
2023/01/05 09:17:53;;;;;;;23.45;9.05;;;;;;;10.38;100.00;101057.50;5054009;28;20116;-63
2023/01/05 09:20:19;;;;;;;20.83;8.88;;;;;;;10.38;100.00;101050.50;5047546;28;20415;-63
2023/01/05 09:22:44;;;;;;;22.95;9.15;;;;;;;10.40;100.00;101060.94;5050580;28;20032;-63
2023/01/05 09:25:10;;;;;;;29.52;9.68;;;;;;;10.42;100.00;101062.59;5056032;28;20028;-63
2023/01/05 09:27:35;;;;;;;29.20;9.23;;;;;;;10.26;100.00;101045.72;5056103;28;20029;-63
2023/01/05 09:30:02;;;;;;;30.60;10.80;;;;;;;10.37;100.00;101055.81;5052879;28;20017;-62
2023/01/05 09:32:27;;;;;;;21.40;9.23;;;;;;;10.33;100.00;101060.34;5053653;28;20107;-63
2023/01/05 09:34:52;;;;;;;18.20;8.68;;;;;;;10.06;100.00;101033.31;5053647;28;20475;-63
2023/01/05 09:37:18;;;;;;;24.33;8.23;;;;;;;10.25;100.00;101060.63;5053039;28;20029;-63
2023/01/05 09:39:43;;;;;;;29.08;10.40;;;;;;;10.30;100.00;101076.22;5053489;28;20025;-63
2023/01/05 09:42:16;;;;;;;33.45;10.80;;;;;;;10.15;100.00;101043.50;5044701;28;20060;-63
2023/01/05 09:44:45;;;;;;;21.33;8.75;;;;;;;10.39;100.00;101082.88;5051429;28;20033;-63
2023/01/05 09:47:17;;;;;;;35.83;9.73;;;;;;;10.48;100.00;101088.63;5053028;28;20064;-63
2023/01/05 09:49:44;;;;;;;21.48;8.90;;;;;;;10.39;100.00;101069.75;5048085;28;20022;-63
2023/01/05 09:52:11;;;;;;;30.52;10.25;;;;;;;10.40;100.00;101066.19;5050493;28;20025;-63
2023/01/05 09:54:38;;;;;;;38.67;10.00;;;;;;;10.65;100.00;101101.97;5039248;28;20049;-63
2023/01/05 09:57:05;;;;;;;32.28;10.88;;;;;;;10.70;100.00;101101.78;5065505;28;20033;-63
2023/01/05 09:59:33;;;;;;;34.85;10.50;;;;;;;10.72;100.00;101098.19;5027889;28;20043;-63
2023/01/05 10:02:01;;;;;;;21.27;8.50;;;;;;;10.77;100.00;101108.53;5042322;28;20025;-63
2023/01/05 10:04:29;;;;;;;23.88;9.00;;;;;;;10.78;100.00;101111.06;5021674;28;20555;-64
2023/01/05 10:06:59;;;;;;;35.13;11.20;;;;;;;10.64;100.00;101089.75;5055017;28;20483;-63
2023/01/05 10:09:29;;;;;;;28.88;8.77;;;;;;;10.74;100.00;101103.41;5030371;28;20036;-64
2023/01/05 10:15:05;;;;;;;27.30;9.27;;;;;;;10.85;100.00;101101.16;5026650;28;20048;-63
2023/01/05 10:17:38;;;;;;;23.63;8.63;;;;;;;10.77;100.00;101090.97;5031210;28;20040;-63
2023/01/05 10:20:16;;;;;;;28.63;9.50;;;;;;;10.88;100.00;101108.97;5012496;28;20025;-63
2023/01/05 10:23:26;;;;;;;29.85;10.25;;;;;;;10.82;100.00;101098.66;5030595;28;20029;-64
2023/01/05 10:26:11;;;;;;;23.95;8.93;;;;;;;10.67;100.00;101099.28;4959577;28;20838;-64
2023/01/05 10:28:43;;;;;;;27.25;9.93;;;;;;;10.73;100.00;101106.94;4949555;28;20134;-63
2023/01/05 10:31:34;;;;;;;28.73;10.23;;;;;;;10.70;100.00;101109.69;5004472;28;20041;-63
2023/01/05 10:34:14;;;;;;;29.45;9.60;;;;;;;10.73;100.00;101114.81;5052952;28;20136;-62
2023/01/05 10:36:51;;;;;;;24.30;8.50;;;;;;;10.80;100.00;101118.06;5031576;28;20025;-63
2023/01/05 10:39:38;;;;;;;24.58;8.80;;;;;;;10.87;100.00;101107.25;5046417;28;20033;-63
2023/01/05 10:42:21;;;;;;;24.95;8.60;;;;;;;10.96;100.00;101119.16;5047622;28;20037;-63
2023/01/05 10:44:49;;;;;;;22.25;9.52;;;;;;;10.95;100.00;101120.09;5064757;28;20376;-63
2023/01/05 10:47:15;;;;;;;26.33;8.85;;;;;;;10.82;100.00;101103.94;5046855;28;20060;-63
2023/01/05 10:49:43;;;;;;;25.13;9.75;;;;;;;10.91;100.00;101121.97;5049668;28;20486;-63
2023/01/05 10:52:13;;;;;;;27.15;8.40;;;;;;;10.88;100.00;101116.84;5029806;28;20394;-63
2023/01/05 10:54:39;;;;;;;19.48;9.02;;;;;;;10.93;100.00;101125.41;5047107;28;20444;-64
2023/01/05 10:57:31;;;;;;;21.50;8.95;;;;;;;10.89;100.00;101122.94;5053568;28;20029;-64
2023/01/05 11:00:39;;;;;;;18.98;7.97;;;;;;;10.86;100.00;101120.44;5049439;28;20022;-63
2023/01/05 11:03:07;;;;;;;27.88;9.05;;;;;;;10.82;100.00;101117.06;4995851;28;20095;-63
2023/01/05 11:05:41;;;;;;;37.17;9.55;;;;;;;10.85;100.00;101124.84;5033774;28;20040;-64
2023/01/05 11:08:14;;;;;;;20.58;7.75;;;;;;;10.66;100.00;101092.31;5024085;28;20029;-63
2023/01/05 11:10:57;;;;;;;34.60;10.32;;;;;;;10.82;100.00;101114.44;5050450;28;20098;-64
2023/01/05 11:13:27;;;;;;;17.42;8.25;;;;;;;10.89;100.00;101126.44;5048944;28;20036;-64
2023/01/05 11:16:10;;;;;;;35.85;9.25;;;;;;;10.92;100.00;101120.19;5030416;28;20520;-64
2023/01/05 11:18:41;;;;;;;20.65;9.23;;;;;;;10.82;100.00;101109.19;5031087;28;20033;-63
2023/01/05 11:21:21;;;;;;;31.95;9.63;;;;;;;10.85;100.00;101119.56;5058007;28;20048;-63
2023/01/05 11:23:49;;;;;;;25.52;9.25;;;;;;;10.84;100.00;101125.78;5049819;28;20028;-64
2023/01/05 11:26:17;;;;;;;24.38;8.73;;;;;;;10.87;100.00;101123.03;5051615;28;20476;-63
2023/01/05 11:29:03;;;;;;;33.00;9.57;;;;;;;10.85;100.00;101130.09;5051580;28;20546;-64
2023/01/05 11:31:33;;;;;;;26.55;9.15;;;;;;;10.92;100.00;101125.44;5033692;28;20040;-64
2023/01/05 11:34:06;;;;;;;27.13;9.68;;;;;;;10.57;100.00;101061.16;5051606;28;20467;-63
2023/01/05 11:36:32;;;;;;;27.42;9.30;;;;;;;10.95;100.00;101113.03;5049998;28;20041;-64
2023/01/05 11:38:57;;;;;;;25.05;8.75;;;;;;;10.96;100.00;101121.78;5033394;28;20546;-64
2023/01/05 11:41:24;;;;;;;27.30;9.40;;;;;;;10.98;100.00;101126.09;5051744;28;20029;-64
2023/01/05 11:43:51;;;;;;;33.17;9.48;;;;;;;11.00;100.00;101132.13;5051373;28;20037;-64
2023/01/05 11:46:16;;;;;;;25.17;8.88;;;;;;;10.93;100.00;101120.13;5033911;28;20112;-64
2023/01/05 11:48:50;;;;;;;21.88;8.27;;;;;;;10.97;100.00;101118.25;5067293;28;20119;-64
2023/01/05 11:51:36;;;;;;;29.88;9.80;;;;;;;11.05;100.00;101132.78;5052100;28;20075;-64